Time;durP1;ratioP1;P1;durP2;ratioP2;P2;SDS_P1;SDS_P2;PMS_P1;PMS_P2;Temp;Humidity;BMP_temperature;BMP_pressure;BME280_temperature;BME280_humidity;BME280_pressure;Samples;Min_cycle;Max_cycle;Signal;HPM_P1;HPM_P2
2022/01/18 00:01:33;;;;;;;23.98;15.80;;;0.30;99.90;;;;;;5032482;28;20072;-81
2022/01/18 00:04:00;;;;;;;21.27;14.85;;;0.30;99.90;;;;;;5032609;28;20029;-80
2022/01/18 00:06:26;;;;;;;25.23;16.10;;;0.30;99.90;;;;;;5032332;28;20021;-80
2022/01/18 00:08:52;;;;;;;25.42;14.35;;;0.30;99.90;;;;;;5032628;28;20087;-81
2022/01/18 00:11:21;;;;;;;21.48;14.32;;;0.30;99.90;;;;;;5037313;28;20030;-83
2022/01/18 00:13:56;;;;;;;24.60;16.65;;;0.30;99.90;;;;;;5021115;28;20030;-82
2022/01/18 00:16:29;;;;;;;24.00;14.95;;;0.30;99.90;;;;;;5034070;28;20102;-84
2022/01/18 00:19:00;;;;;;;20.23;14.65;;;0.30;99.90;;;;;;5034296;28;20033;-84
2022/01/18 00:21:33;;;;;;;20.27;14.80;;;0.30;99.90;;;;;;5042529;28;20490;-83
2022/01/18 00:23:59;;;;;;;25.38;16.48;;;0.30;99.90;;;;;;5055877;28;20029;-81
2022/01/18 00:26:27;;;;;;;29.20;18.15;;;0.30;99.90;;;;;;5059144;28;20021;-83
2022/01/18 00:29:02;;;;;;;23.40;16.40;;;0.30;99.90;;;;;;5053216;28;20025;-83
2022/01/18 00:31:44;;;;;;;23.17;16.48;;;0.30;99.90;;;;;;5055572;28;20021;-83
2022/01/18 00:34:18;;;;;;;23.70;15.40;;;0.30;99.90;;;;;;5072038;28;20029;-81
2022/01/18 00:39:13;;;;;;;23.70;17.85;;;0.30;99.90;;;;;;5058795;28;20029;-85
2022/01/18 00:41:40;;;;;;;25.92;16.88;;;0.20;99.90;;;;;;5054032;28;20466;-83
2022/01/18 00:44:09;;;;;;;30.10;17.23;;;0.30;99.90;;;;;;5053730;28;20029;-83
2022/01/18 00:46:36;;;;;;;25.83;17.90;;;0.30;99.90;;;;;;5047876;28;20124;-83
2022/01/18 00:49:03;;;;;;;35.60;19.17;;;0.30;99.90;;;;;;5053151;28;20123;-82
2022/01/18 00:51:37;;;;;;;28.60;19.97;;;0.20;99.90;;;;;;5053677;28;20029;-83
2022/01/18 00:54:05;;;;;;;29.80;19.83;;;0.30;99.90;;;;;;5054372;28;20021;-83
2022/01/18 00:56:32;;;;;;;27.73;18.35;;;0.30;99.90;;;;;;5070898;28;20060;-82
2022/01/18 00:59:01;;;;;;;28.65;20.23;;;0.20;99.90;;;;;;5068883;28;20041;-84
2022/01/18 01:01:29;;;;;;;29.27;19.77;;;0.30;99.90;;;;;;5058250;28;20109;-83
2022/01/18 01:04:00;;;;;;;31.48;21.80;;;0.20;99.90;;;;;;5047011;28;20484;-84
2022/01/18 01:06:25;;;;;;;31.30;21.25;;;0.30;99.90;;;;;;5057791;28;20021;-81
2022/01/18 01:08:51;;;;;;;32.00;20.95;;;0.30;99.90;;;;;;5076399;28;20059;-84
2022/01/18 01:11:18;;;;;;;32.58;21.40;;;0.30;99.90;;;;;;5060278;28;20032;-85
2022/01/18 01:13:48;;;;;;;39.60;23.48;;;0.30;99.90;;;;;;5040910;28;20021;-85
2022/01/18 01:33:06;;;;;;;33.08;20.73;;;0.30;99.90;;;;;;5059990;28;20511;-83
2022/01/18 01:43:27;;;;;;;33.15;21.33;;;0.30;99.90;;;;;;5062629;28;20285;-83
2022/01/18 01:45:54;;;;;;;28.20;19.95;;;0.30;99.90;;;;;;5061002;28;20044;-82
2022/01/18 01:48:22;;;;;;;;;;;0.30;99.90;;;;;;5060726;28;20074;-83
2022/01/18 01:50:54;;;;;;;;;;;0.20;99.90;;;;;;5068359;28;19939;-82
2022/01/18 01:53:23;;;;;;;24.13;17.33;;;0.20;99.90;;;;;;5061852;28;20371;-83
2022/01/18 01:55:51;;;;;;;28.27;18.67;;;0.20;99.90;;;;;;5058744;28;20453;-82
2022/01/18 01:58:19;;;;;;;;;;;0.20;99.90;;;;;;5051958;28;20097;-82
2022/01/18 02:00:48;;;;;;;31.48;17.75;;;0.20;99.90;;;;;;5055031;28;19959;-84
2022/01/18 02:03:14;;;;;;;27.17;17.55;;;0.20;99.90;;;;;;5057425;28;20106;-84
2022/01/18 02:05:41;;;;;;;31.10;18.90;;;0.20;99.90;;;;;;5056086;28;20425;-82
2022/01/18 02:08:07;;;;;;;23.10;16.73;;;0.20;99.90;;;;;;5055587;28;20033;-83
2022/01/18 02:10:35;;;;;;;25.17;16.70;;;0.20;99.90;;;;;;5035747;28;20037;-82
2022/01/18 02:13:02;;;;;;;22.98;16.17;;;0.20;99.90;;;;;;5054649;28;20075;-81
2022/01/18 02:15:28;;;;;;;21.40;15.27;;;0.20;99.90;;;;;;5055321;28;20032;-83
2022/01/18 02:23:29;;;;;;;22.40;14.77;;;0.20;99.90;;;;;;5053652;28;20036;-81
2022/01/18 02:25:55;;;;;;;23.85;13.88;;;0.20;99.90;;;;;;5067346;28;20081;-79
2022/01/18 02:28:23;;;;;;;20.10;15.00;;;0.20;99.90;;;;;;5045449;28;20054;-80
2022/01/18 02:30:49;;;;;;;20.15;12.98;;;0.20;99.90;;;;;;5054677;28;20068;-82
2022/01/18 02:33:16;;;;;;;14.88;8.90;;;0.20;99.90;;;;;;5054755;28;20033;-81
2022/01/18 02:35:44;;;;;;;16.23;12.18;;;0.20;99.90;;;;;;5054178;28;20166;-82
2022/01/18 02:38:10;;;;;;;16.25;11.50;;;0.20;99.90;;;;;;5054652;28;20033;-83
2022/01/18 02:40:36;;;;;;;12.57;9.20;;;0.20;99.90;;;;;;5062441;28;20029;-79
2022/01/18 02:45:52;;;;;;;16.55;10.43;;;0.20;99.90;;;;;;5050321;28;20044;-81
2022/01/18 02:48:18;;;;;;;17.33;11.05;;;0.20;99.90;;;;;;5054244;28;20029;-83
2022/01/18 02:50:44;;;;;;;14.70;9.93;;;0.20;99.90;;;;;;5054512;28;20040;-81
2022/01/18 02:53:10;;;;;;;14.90;11.90;;;0.20;99.90;;;;;;5054856;28;20029;-82
2022/01/18 02:55:36;;;;;;;12.50;10.15;;;0.20;99.90;;;;;;5054133;28;20036;-82
2022/01/18 02:58:07;;;;;;;14.43;10.45;;;0.20;99.90;;;;;;5037633;28;20021;-79
2022/01/18 03:03:11;;;;;;;15.32;10.45;;;0.20;99.90;;;;;;5058478;28;20028;-81
2022/01/18 03:03:37;;;;;;;14.82;10.40;;;0.10;99.90;;;;;;5060141;28;20091;-80
2022/01/18 03:06:04;;;;;;;17.73;9.82;;;0.10;99.90;;;;;;5038665;28;20061;-80
2022/01/18 03:08:31;;;;;;;21.40;13.50;;;0.10;99.90;;;;;;5053969;28;20021;-80
2022/01/18 03:10:57;;;;;;;21.53;12.80;;;0.10;99.90;;;;;;5054647;28;20048;-80
2022/01/18 03:13:23;;;;;;;14.60;10.95;;;0.10;99.90;;;;;;5055199;28;20021;-80
2022/01/18 03:15:49;;;;;;;17.02;11.30;;;0.10;99.90;;;;;;5054356;28;20021;-81
2022/01/18 03:18:16;;;;;;;11.95;7.78;;;0.10;99.90;;;;;;5053754;28;20358;-82
2022/01/18 03:20:42;;;;;;;13.45;9.48;;;0.10;99.90;;;;;;5051799;28;20120;-81
2022/01/18 03:23:17;;;;;;;11.00;8.93;;;0.10;99.90;;;;;;5053397;28;20069;-80
2022/01/18 03:25:58;;;;;;;13.68;8.77;;;0.10;99.90;;;;;;5032316;28;20017;-79
2022/01/18 03:28:25;;;;;;;16.15;9.25;;;0.10;99.90;;;;;;5034556;28;20025;-79
2022/01/18 03:30:54;;;;;;;;;;;0.10;99.90;;;;;;5034389;28;20083;-81
2022/01/18 03:33:22;;;;;;;8.90;6.65;;;0.10;99.90;;;;;;5037068;28;19927;-80
2022/01/18 03:35:49;;;;;;;11.93;8.15;;;0.00;99.90;;;;;;5041976;28;20088;-83
2022/01/18 03:38:16;;;;;;;9.73;6.03;;;0.00;99.90;;;;;;5059077;28;20028;-79
2022/01/18 03:40:42;;;;;;;9.15;6.70;;;0.00;99.90;;;;;;5055172;28;20025;-81
2022/01/18 03:43:11;;;;;;;8.48;6.07;;;0.00;99.90;;;;;;5032259;28;20516;-80
2022/01/18 03:45:44;;;;;;;10.73;6.55;;;0.00;99.90;;;;;;5032579;28;20049;-81
2022/01/18 03:48:23;;;;;;;11.70;6.15;;;0.00;99.90;;;;;;5040706;28;20046;-81
2022/01/18 03:50:48;;;;;;;11.60;7.53;;;0.00;99.90;;;;;;5043463;28;20183;-81
2022/01/18 03:53:14;;;;;;;8.77;5.90;;;0.00;99.90;;;;;;5049425;28;20057;-81
2022/01/18 03:55:40;;;;;;;9.73;6.95;;;0.00;99.90;;;;;;5043913;28;20052;-80
2022/01/18 03:58:06;;;;;;;11.15;6.97;;;0.00;99.90;;;;;;5034292;28;20022;-81
2022/01/18 04:00:32;;;;;;;9.52;5.97;;;0.10;99.90;;;;;;5033790;28;20061;-81
2022/01/18 04:02:59;;;;;;;14.18;10.05;;;0.10;99.90;;;;;;5030227;28;20036;-80
2022/01/18 04:05:25;;;;;;;9.20;5.25;;;0.10;99.90;;;;;;5030591;28;20033;-80
2022/01/18 04:07:51;;;;;;;7.85;5.22;;;0.10;99.90;;;;;;5029743;28;20607;-81
2022/01/18 04:10:17;;;;;;;8.68;5.10;;;0.00;99.90;;;;;;5030775;28;20044;-80
2022/01/18 04:12:43;;;;;;;9.82;4.72;;;0.00;99.90;;;;;;5030740;28;20025;-81
2022/01/18 04:15:11;;;;;;;8.00;4.65;;;0.10;99.90;;;;;;5043332;28;20040;-81
2022/01/18 04:31:00;;;;;;;5.78;4.38;;;-0.10;99.90;;;;;;5060976;28;20040;-82
2022/01/18 04:33:26;;;;;;;5.90;3.80;;;-0.10;99.90;;;;;;5076069;28;20028;-81
2022/01/18 04:35:52;;;;;;;5.47;4.22;;;-0.10;99.90;;;;;;5075722;28;20036;-82
2022/01/18 04:38:17;;;;;;;7.20;4.30;;;-0.10;99.90;;;;;;5076980;28;20028;-81
2022/01/18 04:40:45;;;;;;;5.07;3.67;;;-0.10;99.90;;;;;;5079001;28;20031;-81
2022/01/18 04:50:56;;;;;;;3.53;2.65;;;-0.10;99.90;;;;;;5057230;28;20547;-85
2022/01/18 04:53:22;;;;;;;2.90;2.60;;;-0.10;99.50;;;;;;5057309;28;20032;-83
2022/01/18 04:55:54;;;;;;;5.03;2.63;;;-0.10;99.80;;;;;;5058231;28;20029;-81
2022/01/18 04:58:21;;;;;;;5.13;3.45;;;-0.10;99.80;;;;;;5056607;28;20025;-84
2022/01/18 05:00:48;;;;;;;6.70;3.22;;;-0.20;99.60;;;;;;5057002;28;20428;-84
2022/01/18 05:03:14;;;;;;;4.95;3.70;;;-0.20;99.30;;;;;;5055712;28;20021;-86
2022/01/18 05:05:39;;;;;;;4.30;3.30;;;-0.20;99.30;;;;;;5057293;28;20025;-83
2022/01/18 05:08:12;;;;;;;4.05;2.78;;;-0.30;99.40;;;;;;5056841;28;20470;-82
2022/01/18 05:10:38;;;;;;;3.97;2.70;;;-0.30;98.80;;;;;;5057359;28;20086;-85
2022/01/18 05:13:14;;;;;;;4.70;3.47;;;-0.40;98.90;;;;;;5056140;28;20139;-84
2022/01/18 05:15:50;;;;;;;7.03;3.60;;;-0.40;99.00;;;;;;5056579;28;20036;-86
2022/01/18 05:23:32;;;;;;;6.68;4.07;;;-0.50;98.50;;;;;;5066287;28;20535;-85
2022/01/18 05:25:58;;;;;;;4.32;2.90;;;-0.60;98.50;;;;;;5056440;28;20092;-83
2022/01/18 05:28:23;;;;;;;4.90;4.10;;;-0.70;98.70;;;;;;5057054;28;20107;-84
2022/01/18 05:30:50;;;;;;;8.93;4.60;;;-0.70;98.90;;;;;;5056000;28;20036;-82
2022/01/18 05:33:18;;;;;;;7.13;4.10;;;-0.70;98.90;;;;;;5052222;28;20539;-84
2022/01/18 05:35:44;;;;;;;5.97;4.38;;;-0.70;99.00;;;;;;5056508;28;20393;-84
2022/01/18 05:38:10;;;;;;;5.97;3.65;;;-0.70;99.10;;;;;;5055785;28;20029;-83
2022/01/18 05:40:37;;;;;;;6.45;4.25;;;-0.80;99.10;;;;;;5055518;28;20036;-85
2022/01/18 05:43:04;;;;;;;5.95;3.88;;;-0.80;98.90;;;;;;5057382;28;20021;-85
2022/01/18 05:45:30;;;;;;;6.47;4.00;;;-0.80;98.90;;;;;;5055770;28;20040;-84
2022/01/18 05:47:56;;;;;;;7.00;3.22;;;-0.90;98.70;;;;;;5055710;28;20385;-84
2022/01/18 05:50:21;;;;;;;6.32;3.20;;;-0.90;99.00;;;;;;5064331;28;20037;-80
2022/01/18 05:52:47;;;;;;;6.68;3.50;;;-1.00;99.00;;;;;;5066831;28;20029;-84
2022/01/18 05:55:14;;;;;;;6.60;4.35;;;-1.00;99.20;;;;;;5072805;28;20005;-80
2022/01/18 05:57:42;;;;;;;5.53;3.78;;;-1.00;99.00;;;;;;5078000;28;20025;-82
2022/01/18 06:00:11;;;;;;;5.18;3.58;;;-1.10;99.20;;;;;;5077772;28;20119;-84
2022/01/18 06:02:48;;;;;;;5.65;4.18;;;-1.10;99.40;;;;;;5066652;28;20052;-83
2022/01/18 06:07:59;;;;;;;5.13;3.38;;;-1.30;99.20;;;;;;5057626;28;20024;-84
2022/01/18 06:10:25;;;;;;;6.30;3.20;;;-1.30;99.30;;;;;;5036300;28;20037;-84
2022/01/18 06:12:52;;;;;;;6.88;3.70;;;-1.30;99.50;;;;;;5074618;28;20109;-81
2022/01/18 06:15:18;;;;;;;6.43;2.42;;;-1.30;99.50;;;;;;5064294;28;20368;-85
2022/01/18 06:17:45;;;;;;;3.40;3.08;;;-1.40;99.30;;;;;;5056818;28;20040;-84
2022/01/18 06:20:11;;;;;;;4.80;3.05;;;-1.40;99.20;;;;;;5037214;28;20028;-82
2022/01/18 06:22:37;;;;;;;4.40;2.70;;;-1.50;99.20;;;;;;5055681;28;20107;-84
2022/01/18 06:25:04;;;;;;;3.88;3.00;;;-1.50;99.00;;;;;;5055993;28;20029;-85
2022/01/18 06:27:29;;;;;;;3.13;2.78;;;-1.50;99.10;;;;;;5035418;28;20049;-83
2022/01/18 06:29:55;;;;;;;7.43;4.10;;;-1.60;99.00;;;;;;5016913;28;20119;-83
2022/01/18 06:32:22;;;;;;;7.82;2.88;;;-1.60;99.00;;;;;;5053762;28;20095;-84
2022/01/18 06:34:48;;;;;;;4.22;2.40;;;-1.60;99.10;;;;;;5056309;28;20028;-84
2022/01/18 06:37:14;;;;;;;5.75;3.78;;;-1.70;99.20;;;;;;5052557;28;20536;-83
2022/01/18 06:39:39;;;;;;;5.28;3.03;;;-1.70;99.10;;;;;;5056250;28;20025;-83
2022/01/18 06:42:06;;;;;;;4.90;3.33;;;-1.80;99.20;;;;;;5057051;28;20135;-84
2022/01/18 06:44:34;;;;;;;5.82;3.03;;;-1.80;99.30;;;;;;5054924;28;20020;-83
2022/01/18 06:47:00;;;;;;;4.97;2.88;;;-1.80;99.20;;;;;;5060964;28;20120;-83
2022/01/18 06:49:26;;;;;;;4.65;2.58;;;-1.80;99.10;;;;;;5074189;28;20032;-82
2022/01/18 06:51:52;;;;;;;4.10;2.33;;;-1.80;99.10;;;;;;5064839;28;20036;-83
2022/01/18 06:54:18;;;;;;;7.90;3.33;;;-1.80;99.30;;;;;;5054798;28;20039;-84
2022/01/18 06:56:47;;;;;;;3.75;2.75;;;-1.80;99.20;;;;;;5055784;28;20028;-82
2022/01/18 06:59:13;;;;;;;7.38;2.22;;;-1.80;99.10;;;;;;5054578;28;20052;-82
2022/01/18 07:01:40;;;;;;;6.68;3.30;;;-1.80;98.90;;;;;;5054506;28;20032;-83
2022/01/18 07:04:06;;;;;;;3.87;2.43;;;-1.80;98.60;;;;;;5056242;28;20047;-83
2022/01/18 07:06:33;;;;;;;5.15;3.03;;;-1.90;98.40;;;;;;5053893;28;20033;-84
2022/01/18 07:09:00;;;;;;;4.55;2.88;;;-1.90;98.40;;;;;;5044484;28;20473;-82
2022/01/18 07:11:26;;;;;;;4.97;3.43;;;-1.90;98.50;;;;;;5054734;28;20033;-90
2022/01/18 07:13:52;;;;;;;4.35;3.10;;;-1.90;98.50;;;;;;5056477;28;20037;-85
2022/01/18 07:16:18;;;;;;;5.80;3.72;;;-1.90;98.50;;;;;;5054752;28;20025;-86
2022/01/18 07:18:44;;;;;;;3.67;2.35;;;-1.90;98.40;;;;;;5055682;28;20025;-85
2022/01/18 07:21:10;;;;;;;6.80;3.72;;;-2.00;98.50;;;;;;5052268;28;20044;-85
2022/01/18 07:23:37;;;;;;;5.65;3.10;;;-2.00;98.50;;;;;;5038554;28;20027;-82
2022/01/18 07:26:04;;;;;;;4.15;2.22;;;-2.00;98.50;;;;;;5053921;28;20474;-84
2022/01/18 07:28:30;;;;;;;7.47;3.03;;;-2.00;98.30;;;;;;5054027;28;20060;-86
2022/01/18 07:30:56;;;;;;;4.20;3.15;;;-2.10;98.20;;;;;;5055203;28;20087;-86
2022/01/18 07:33:23;;;;;;;5.03;3.30;;;-2.10;98.30;;;;;;5048891;28;20017;-85
2022/01/18 07:35:50;;;;;;;13.40;4.40;;;-2.10;98.40;;;;;;5046168;28;20745;-84
2022/01/18 07:38:18;;;;;;;4.35;2.65;;;-2.00;97.90;;;;;;5054676;28;20079;-88
2022/01/18 07:40:49;;;;;;;3.28;2.35;;;-2.10;97.80;;;;;;5059404;28;20315;-84
2022/01/18 07:43:17;;;;;;;7.05;3.10;;;-2.00;97.60;;;;;;5046206;28;20021;-84
2022/01/18 07:45:46;;;;;;;3.97;2.83;;;-2.10;97.50;;;;;;5069186;28;20032;-86
2022/01/18 07:48:13;;;;;;;6.20;2.40;;;-2.20;97.50;;;;;;5060459;28;20017;-88
2022/01/18 07:50:41;;;;;;;3.60;2.33;;;-2.20;97.30;;;;;;5056719;28;20025;-87
2022/01/18 07:53:07;;;;;;;5.00;2.88;;;-2.20;97.50;;;;;;5056013;28;20112;-87
2022/01/18 07:55:33;;;;;;;4.45;2.63;;;-2.20;97.00;;;;;;5055238;28;20035;-86
2022/01/18 07:58:00;;;;;;;5.68;2.85;;;-2.20;97.10;;;;;;5055864;28;20086;-89
2022/01/18 08:00:29;;;;;;;4.53;2.90;;;-2.20;97.50;;;;;;5055736;28;20498;-85
2022/01/18 08:02:55;;;;;;;4.40;3.25;;;-2.20;97.60;;;;;;5056440;28;20250;-86
2022/01/18 08:05:21;;;;;;;5.63;2.40;;;-2.10;97.40;;;;;;5070827;28;20186;-87
2022/01/18 08:07:55;;;;;;;4.57;2.50;;;-2.10;97.20;;;;;;5060906;28;20020;-86
2022/01/18 08:10:21;;;;;;;4.97;2.25;;;-2.10;96.70;;;;;;5061240;28;20052;-88
2022/01/18 08:12:51;;;;;;;3.00;2.20;;;-2.10;96.10;;;;;;5068622;28;20067;-87
2022/01/18 08:15:20;;;;;;;3.88;2.33;;;-2.10;95.70;;;;;;5058507;28;20017;-88
2022/01/18 08:17:49;;;;;;;4.72;3.05;;;-2.10;95.60;;;;;;5058513;28;20063;-89
2022/01/18 08:20:15;;;;;;;4.05;2.60;;;-2.20;95.10;;;;;;5042627;28;20100;-87
2022/01/18 08:22:44;;;;;;;4.68;2.03;;;-2.20;95.50;;;;;;5036722;28;20025;-85
2022/01/18 08:25:11;;;;;;;3.08;2.78;;;-2.10;95.10;;;;;;5055894;28;20029;-87
2022/01/18 08:27:39;;;;;;;3.10;2.25;;;-2.20;94.40;;;;;;5056378;28;20020;-88
2022/01/18 08:30:08;;;;;;;4.65;2.80;;;-2.20;94.10;;;;;;5054775;28;20045;-89
2022/01/18 08:32:34;;;;;;;3.00;2.53;;;-2.20;94.50;;;;;;5036417;28;20021;-86
2022/01/18 08:35:00;;;;;;;4.72;2.53;;;-2.20;94.30;;;;;;5053589;28;20044;-85
2022/01/18 08:37:26;;;;;;;6.63;4.00;;;-2.30;94.50;;;;;;5052302;28;20112;-87
2022/01/18 08:39:53;;;;;;;5.93;2.17;;;-2.30;93.70;;;;;;5054255;28;20032;-86
2022/01/18 08:42:19;;;;;;;;;;;-2.30;94.10;;;;;;5056787;28;20018;-85
2022/01/18 08:44:45;;;;;;;5.60;2.22;;;-2.30;94.20;;;;;;5063201;28;19973;-88
2022/01/18 08:47:13;;;;;;;10.93;3.08;;;-2.30;94.00;;;;;;5054576;28;20024;-86
2022/01/18 08:49:39;;;;;;;7.68;2.20;;;-2.30;94.20;;;;;;5088197;28;20092;-88
2022/01/18 08:52:05;;;;;;;5.20;2.38;;;-2.30;93.90;;;;;;5075018;28;20021;-80
2022/01/18 08:54:31;;;;;;;5.75;3.10;;;-2.30;94.00;;;;;;5060296;28;20473;-85
2022/01/18 08:56:57;;;;;;;4.43;2.60;;;-2.40;93.60;;;;;;5073026;28;20085;-87
2022/01/18 08:59:24;;;;;;;6.60;2.28;;;-2.40;94.10;;;;;;5055387;28;20056;-87
2022/01/18 09:01:50;;;;;;;6.80;2.05;;;-2.40;94.20;;;;;;5053077;28;20079;-87
2022/01/18 09:04:17;;;;;;;7.75;2.88;;;-2.30;93.70;;;;;;5056152;28;20063;-85
2022/01/18 09:06:47;;;;;;;21.67;3.78;;;-2.30;94.10;;;;;;5057049;28;20381;-87
2022/01/18 09:09:15;;;;;;;3.70;2.38;;;-2.30;93.70;;;;;;5053833;28;20083;-89
2022/01/18 09:11:40;;;;;;;7.55;3.42;;;-2.30;93.60;;;;;;5061293;28;20085;-88
2022/01/18 09:14:06;;;;;;;4.90;2.67;;;-2.30;92.80;;;;;;5053706;28;20051;-85
2022/01/18 09:16:32;;;;;;;6.53;3.13;;;-2.30;93.00;;;;;;5036833;28;20492;-86
2022/01/18 09:18:58;;;;;;;6.20;3.30;;;-2.30;93.20;;;;;;5057942;28;20025;-82
2022/01/18 09:21:26;;;;;;;3.38;2.40;;;-2.30;93.10;;;;;;5057841;28;20053;-85
2022/01/18 09:23:52;;;;;;;5.65;2.60;;;-2.40;92.80;;;;;;5056632;28;20104;-85
2022/01/18 09:26:18;;;;;;;8.23;2.70;;;-2.40;92.90;;;;;;5057524;28;20056;-87
2022/01/18 09:28:44;;;;;;;5.28;3.58;;;-2.40;92.50;;;;;;5058199;28;20032;-89
2022/01/18 09:31:10;;;;;;;3.10;2.30;;;-2.40;92.20;;;;;;5054844;28;20076;-87
2022/01/18 09:33:36;;;;;;;3.83;2.53;;;-2.50;92.40;;;;;;5057198;28;20017;-86
2022/01/18 09:36:03;;;;;;;2.63;2.15;;;-2.50;93.30;;;;;;5057756;28;20104;-85
2022/01/18 09:38:29;;;;;;;3.65;2.33;;;-2.50;92.80;;;;;;5058240;28;20017;-85
2022/01/18 09:40:55;;;;;;;3.28;1.75;;;-2.60;92.70;;;;;;5058225;28;20078;-85
2022/01/18 09:43:20;;;;;;;3.42;2.30;;;-2.60;92.60;;;;;;5066038;28;20025;-83
2022/01/18 09:45:46;;;;;;;3.30;2.03;;;-2.70;92.60;;;;;;5058355;28;20025;-85
2022/01/18 09:48:14;;;;;;;6.57;3.03;;;-2.70;92.10;;;;;;5063263;28;20025;-86
2022/01/18 09:50:42;;;;;;;4.43;2.75;;;-2.70;92.40;;;;;;5057518;28;20029;-85
2022/01/18 09:53:10;;;;;;;4.10;2.65;;;-2.70;92.30;;;;;;5039160;28;20486;-85
2022/01/18 09:55:37;;;;;;;4.75;2.58;;;-2.70;92.50;;;;;;5058135;28;20021;-86
2022/01/18 09:58:07;;;;;;;4.20;2.55;;;-2.70;91.80;;;;;;5037994;28;20075;-84
2022/01/18 10:00:35;;;;;;;3.97;3.00;;;-2.80;91.40;;;;;;5040001;28;20088;-86
2022/01/18 10:03:01;;;;;;;3.75;2.67;;;-2.90;91.50;;;;;;5066627;28;20203;-85
2022/01/18 10:05:33;;;;;;;5.93;3.28;;;-3.00;91.70;;;;;;5079321;28;20077;-83
2022/01/18 10:08:10;;;;;;;6.20;2.63;;;-3.10;91.60;;;;;;5065660;28;20025;-86
2022/01/18 10:10:49;;;;;;;5.85;2.88;;;-3.00;92.10;;;;;;5071984;28;20036;-84
2022/01/18 10:13:26;;;;;;;4.22;2.65;;;-3.00;92.50;;;;;;5056382;28;20021;-87
2022/01/18 10:16:12;;;;;;;3.47;2.25;;;-3.00;92.80;;;;;;5057251;28;20060;-87
2022/01/18 10:18:49;;;;;;;3.10;2.50;;;-3.00;93.10;;;;;;5060619;28;20021;-86
2022/01/18 10:21:28;;;;;;;;;;;-3.00;93.00;;;;;;5054668;28;20093;-86
2022/01/18 10:24:11;;;;;;;4.40;2.80;;;-3.00;92.80;;;;;;5076930;28;19968;-88
2022/01/18 10:26:41;;;;;;;4.20;2.45;;;-3.00;92.40;;;;;;5064638;28;20051;-85
2022/01/18 10:29:08;;;;;;;4.22;2.75;;;-3.00;92.90;;;;;;5058916;28;20106;-83
2022/01/18 10:31:41;;;;;;;5.35;2.47;;;-3.00;92.80;;;;;;5056048;28;20390;-85
2022/01/18 10:37:12;;;;;;;7.32;3.22;;;-3.10;92.70;;;;;;5018188;28;20037;-86
2022/01/18 10:39:49;;;;;;;4.40;2.33;;;-3.00;91.70;;;;;;5055942;28;20035;-83
2022/01/18 10:42:38;;;;;;;6.07;2.75;;;-3.10;91.90;;;;;;5055820;28;20103;-85
2022/01/18 10:45:11;;;;;;;3.45;2.30;;;-3.10;92.10;;;;;;5054558;28;20024;-85
2022/01/18 10:47:46;;;;;;;4.00;3.00;;;-3.10;91.60;;;;;;5036510;28;20036;-84
2022/01/18 10:50:15;;;;;;;4.40;2.65;;;-3.10;91.30;;;;;;5035860;28;20123;-84
2022/01/18 10:52:42;;;;;;;4.25;2.67;;;-3.20;91.50;;;;;;5054181;28;20132;-83
2022/01/18 10:55:15;;;;;;;5.53;3.50;;;-3.30;91.40;;;;;;5054440;28;20075;-83
2022/01/18 10:57:41;;;;;;;3.67;2.58;;;-3.30;91.60;;;;;;5037437;28;20083;-84
2022/01/18 11:00:13;;;;;;;4.63;2.97;;;-3.30;91.30;;;;;;5059237;28;20481;-84
2022/01/18 11:02:41;;;;;;;2.67;2.13;;;-3.30;91.50;;;;;;5062066;28;20071;-84
2022/01/18 11:05:21;;;;;;;2.65;2.00;;;-3.30;91.10;;;;;;5043708;28;20025;-84
2022/01/18 11:07:48;;;;;;;4.88;1.92;;;-3.30;91.50;;;;;;5058976;28;20078;-85
2022/01/18 11:10:16;;;;;;;4.47;2.95;;;-3.40;91.10;;;;;;5055394;28;20032;-85
2022/01/18 11:13:04;;;;;;;3.72;2.50;;;-3.40;90.10;;;;;;5053852;28;20032;-82
2022/01/18 11:15:32;;;;;;;3.47;2.88;;;-3.50;90.50;;;;;;5054447;28;20087;-82
2022/01/18 11:18:05;;;;;;;5.25;2.20;;;-3.50;90.40;;;;;;5054741;28;20025;-84
2022/01/18 11:20:33;;;;;;;4.88;2.97;;;-3.50;90.60;;;;;;5055145;28;20520;-82
2022/01/18 11:23:00;;;;;;;3.15;1.92;;;-3.50;90.20;;;;;;5054585;28;20021;-82
2022/01/18 11:25:28;;;;;;;6.47;3.10;;;-3.50;90.70;;;;;;5055826;28;20428;-82
2022/01/18 11:27:58;;;;;;;3.75;3.00;;;-3.50;90.60;;;;;;5054340;28;20100;-82
2022/01/18 11:30:29;;;;;;;5.07;2.67;;;-3.50;90.60;;;;;;5035305;28;20087;-83
2022/01/18 11:32:56;;;;;;;3.65;2.70;;;-3.50;90.60;;;;;;5054593;28;20036;-87
2022/01/18 11:35:40;;;;;;;;;;;-3.50;90.80;;;;;;5057364;28;20451;-89
2022/01/18 11:38:16;;;;;;;10.35;2.78;;;-3.40;90.60;;;;;;5057998;28;19905;-86
2022/01/18 11:40:47;;;;;;;5.82;3.17;;;-3.50;90.60;;;;;;5059579;28;20018;-84
2022/01/18 11:43:13;;;;;;;4.90;2.25;;;-3.50;90.60;;;;;;5055807;28;20029;-85
2022/01/18 11:45:42;;;;;;;5.63;2.95;;;-3.50;90.40;;;;;;5036383;28;20028;-84
2022/01/18 11:48:18;;;;;;;6.80;3.40;;;-3.50;90.60;;;;;;5034455;28;20049;-85
2022/01/18 11:50:47;;;;;;;3.17;2.63;;;-3.50;91.20;;;;;;5041713;28;20060;-86
2022/01/18 11:53:21;;;;;;;5.50;2.67;;;-3.50;90.40;;;;;;5038508;28;20021;-82
2022/01/18 11:55:47;;;;;;;4.57;2.70;;;-3.50;90.60;;;;;;5055149;28;20049;-85
2022/01/18 11:58:13;;;;;;;6.95;3.35;;;-3.50;90.80;;;;;;5055326;28;20469;-82
2022/01/18 12:00:52;;;;;;;4.85;3.00;;;-3.50;90.50;;;;;;5042816;28;20025;-81
2022/01/18 12:03:25;;;;;;;5.10;2.97;;;-3.40;90.40;;;;;;5052915;28;20100;-83
2022/01/18 12:05:52;;;;;;;5.78;3.00;;;-3.50;90.30;;;;;;5053712;28;20389;-81
2022/01/18 12:08:31;;;;;;;6.15;2.63;;;-3.50;90.50;;;;;;5052922;28;20538;-82
2022/01/18 12:10:58;;;;;;;7.40;3.28;;;-3.50;90.70;;;;;;5052352;28;20045;-85
2022/01/18 12:13:31;;;;;;;7.97;3.73;;;-3.50;90.60;;;;;;5049588;28;20021;-84
2022/01/18 12:15:59;;;;;;;6.88;3.20;;;-3.50;90.90;;;;;;5054013;28;20033;-86
2022/01/18 12:18:29;;;;;;;13.80;4.13;;;-3.50;90.80;;;;;;5052474;28;20029;-83
2022/01/18 12:20:58;;;;;;;9.02;3.25;;;-3.50;90.90;;;;;;5053494;28;20048;-83
2022/01/18 12:23:32;;;;;;;3.15;2.53;;;-3.50;91.20;;;;;;5036811;28;20024;-82
2022/01/18 12:34:30;;;;;;;8.35;4.38;;;-3.80;90.90;;;;;;5074869;28;20017;-88
2022/01/18 12:37:27;;;;;;;4.45;2.80;;;-3.80;91.40;;;;;;5066801;28;20032;-84
2022/01/18 12:40:11;;;;;;;10.10;4.18;;;-3.80;91.40;;;;;;5047492;28;20385;-83
2022/01/18 12:45:33;;;;;;;5.28;3.10;;;-3.80;92.00;;;;;;5042958;28;20026;-82
2022/01/18 12:48:07;;;;;;;5.25;2.50;;;-3.80;92.10;;;;;;5045971;28;20036;-82
2022/01/18 12:50:40;;;;;;;4.38;2.83;;;-3.80;92.30;;;;;;5052144;28;20025;-82
2022/01/18 12:53:08;;;;;;;9.98;4.68;;;-3.80;92.50;;;;;;5053825;28;20025;-81
2022/01/18 12:55:43;;;;;;;6.55;3.78;;;-3.80;92.40;;;;;;5039938;28;20086;-81
2022/01/18 12:58:25;;;;;;;7.97;4.25;;;-3.80;92.70;;;;;;5057366;28;20044;-80
2022/01/18 13:00:57;;;;;;;10.27;3.25;;;-3.80;92.90;;;;;;5056040;28;20025;-82
2022/01/18 13:03:26;;;;;;;5.97;3.95;;;-3.80;92.90;;;;;;5055953;28;20075;-82
2022/01/18 13:05:54;;;;;;;12.32;4.18;;;-3.80;92.30;;;;;;5055438;28;20055;-82
2022/01/18 13:08:22;;;;;;;15.43;5.00;;;-3.80;92.30;;;;;;5055733;28;20031;-81
2022/01/18 13:10:50;;;;;;;19.42;5.35;;;-3.80;92.60;;;;;;5056849;28;20037;-81
2022/01/18 13:13:20;;;;;;;9.18;3.78;;;-3.80;92.70;;;;;;5056962;28;20087;-80
2022/01/18 13:24:05;;;;;;;9.38;3.15;;;-3.80;93.10;;;;;;5056269;28;20064;-82
2022/01/18 13:26:39;;;;;;;7.32;3.17;;;-3.80;92.90;;;;;;5055644;28;20056;-80
2022/01/18 13:29:15;;;;;;;7.57;3.25;;;-3.80;93.00;;;;;;5051629;28;20049;-80
2022/01/18 13:31:44;;;;;;;5.75;2.85;;;-3.80;93.20;;;;;;5055378;28;20213;-83
2022/01/18 13:34:13;;;;;;;5.63;3.42;;;-3.80;92.70;;;;;;5066574;28;20151;-85
2022/01/18 13:36:50;;;;;;;9.18;3.05;;;-3.80;92.80;;;;;;5039659;28;20028;-81
2022/01/18 13:39:27;;;;;;;5.07;3.42;;;-3.90;92.40;;;;;;5055711;28;20029;-82
2022/01/18 13:41:54;;;;;;;5.85;3.90;;;-3.90;92.90;;;;;;5055709;28;20032;-82
2022/01/18 13:44:20;;;;;;;5.32;4.40;;;-3.90;92.80;;;;;;5056405;28;20063;-83
2022/01/18 13:46:45;;;;;;;5.25;3.70;;;-3.90;93.20;;;;;;5055315;28;20537;-82
2022/01/18 13:49:11;;;;;;;5.47;3.00;;;-3.90;93.30;;;;;;5055346;28;20048;-82
2022/01/18 13:51:37;;;;;;;5.97;3.58;;;-3.80;93.20;;;;;;5055250;28;20052;-82
2022/01/18 13:54:07;;;;;;;9.30;4.65;;;-3.80;93.30;;;;;;5059664;28;20013;-80
2022/01/18 13:56:33;;;;;;;8.20;3.67;;;-3.80;93.20;;;;;;5065505;28;20021;-82
2022/01/18 13:59:04;;;;;;;7.22;3.28;;;-3.80;93.20;;;;;;5053644;28;20059;-81
2022/01/18 14:01:35;;;;;;;5.43;3.97;;;-3.70;93.40;;;;;;5054726;28;20389;-81
2022/01/18 14:04:14;;;;;;;5.55;3.90;;;-3.70;93.10;;;;;;5050554;28;20398;-81
2022/01/18 14:06:42;;;;;;;5.13;3.85;;;-3.70;93.10;;;;;;5054697;28;20486;-79
2022/01/18 14:09:09;;;;;;;4.40;2.83;;;-3.80;93.00;;;;;;5053181;28;20453;-81
2022/01/18 14:11:36;;;;;;;6.38;4.20;;;-3.80;93.30;;;;;;5054534;28;20017;-80
2022/01/18 14:14:14;;;;;;;;;;;-3.90;93.30;;;;;;5054712;28;20167;-80
2022/01/18 14:16:49;;;;;;;5.72;3.28;;;-3.90;93.40;;;;;;5054027;28;20008;-82
2022/01/18 14:19:28;;;;;;;5.38;3.17;;;-3.90;93.40;;;;;;5054049;28;20090;-80
2022/01/18 14:21:55;;;;;;;8.35;3.97;;;-4.00;92.70;;;;;;5054772;28;20076;-81
2022/01/18 14:24:24;;;;;;;8.82;4.00;;;-4.10;92.40;;;;;;5050419;28;20041;-82